Time;durP1;ratioP1;P1;durP2;ratioP2;P2;SDS_P1;SDS_P2;PMS_P1;PMS_P2;Temp;Humidity;BMP_temperature;BMP_pressure;BME280_temperature;BME280_humidity;BME280_pressure;Samples;Min_cycle;Max_cycle;Signal;HPM_P1;HPM_P2
2022/05/06 00:01:32;;;;;;;22.63;16.30;;;9.60;99.90;;;;;;5036510;28;20267;-44
2022/05/06 00:03:58;;;;;;;21.83;16.63;;;9.60;99.90;;;;;;5035330;28;20708;-41
2022/05/06 00:06:24;;;;;;;22.77;16.43;;;9.50;99.90;;;;;;5036562;28;20643;-42
2022/05/06 00:08:49;;;;;;;24.37;17.30;;;9.50;99.90;;;;;;5035619;28;20194;-41
2022/05/06 00:11:15;;;;;;;26.07;18.07;;;9.50;99.90;;;;;;5036811;28;20564;-41
2022/05/06 00:13:41;;;;;;;24.90;19.07;;;9.40;99.90;;;;;;5036894;28;20648;-38
2022/05/06 00:16:07;;;;;;;23.90;18.43;;;9.40;99.90;;;;;;5036578;28;20673;-40
2022/05/06 00:18:33;;;;;;;26.03;18.93;;;9.40;99.90;;;;;;5036526;28;20208;-39
2022/05/06 00:20:58;;;;;;;24.57;17.53;;;9.40;99.90;;;;;;5036259;28;20240;-39
2022/05/06 00:23:24;;;;;;;21.47;16.70;;;9.40;99.90;;;;;;5036369;28;20186;-40
2022/05/06 00:25:50;;;;;;;26.17;19.00;;;9.30;99.90;;;;;;5036124;28;20237;-40
2022/05/06 00:28:16;;;;;;;28.00;19.77;;;9.20;99.90;;;;;;5036054;28;20231;-40
2022/05/06 00:30:42;;;;;;;27.80;18.83;;;9.20;99.90;;;;;;5036187;28;20219;-43
2022/05/06 00:33:09;;;;;;;34.57;20.70;;;9.20;99.90;;;;;;5036362;28;20204;-39
2022/05/06 00:35:38;;;;;;;31.53;23.13;;;9.20;99.90;;;;;;5036146;28;20190;-41
2022/05/06 00:38:05;;;;;;;29.20;21.20;;;9.20;99.90;;;;;;5035887;28;20201;-41
2022/05/06 00:40:31;;;;;;;30.33;21.37;;;9.20;99.90;;;;;;5035832;28;20213;-40
2022/05/06 00:42:56;;;;;;;30.73;20.63;;;9.20;99.90;;;;;;5036032;28;20213;-41
2022/05/06 00:45:31;;;;;;;27.90;20.17;;;9.10;99.90;;;;;;5035700;28;20190;-41
2022/05/06 00:47:57;;;;;;;33.80;22.23;;;9.10;99.90;;;;;;5035375;28;20280;-39
2022/05/06 00:50:22;;;;;;;31.83;20.60;;;9.10;99.90;;;;;;5034336;28;20272;-42
2022/05/06 00:52:48;;;;;;;28.10;20.40;;;9.00;99.90;;;;;;5035693;28;20275;-40
2022/05/06 00:55:14;;;;;;;25.67;19.30;;;9.00;99.90;;;;;;5035528;28;20698;-40
2022/05/06 00:57:40;;;;;;;28.40;18.73;;;8.90;99.90;;;;;;5035423;28;20195;-40
2022/05/06 01:00:18;;;;;;;27.23;19.80;;;8.90;99.90;;;;;;5035354;28;20277;-41
2022/05/06 01:02:45;;;;;;;32.67;20.50;;;8.90;99.90;;;;;;5034679;28;20257;-42
2022/05/06 01:05:14;;;;;;;28.13;20.40;;;8.80;99.90;;;;;;5035437;28;20653;-39
2022/05/06 01:07:41;;;;;;;28.00;19.53;;;8.80;99.90;;;;;;5035468;28;20217;-40
2022/05/06 01:10:07;;;;;;;29.73;20.43;;;8.70;99.90;;;;;;5035553;28;20582;-40
2022/05/06 01:12:33;;;;;;;26.80;19.70;;;8.70;99.90;;;;;;5035356;28;20566;-40
2022/05/06 01:14:59;;;;;;;28.60;20.37;;;8.60;99.90;;;;;;5036062;28;20180;-39
2022/05/06 01:17:25;;;;;;;27.77;20.63;;;8.60;99.90;;;;;;5035650;28;20206;-39
2022/05/06 01:19:51;;;;;;;30.63;21.47;;;8.50;99.90;;;;;;5035146;28;20183;-39
2022/05/06 01:22:20;;;;;;;33.17;22.27;;;8.50;99.90;;;;;;5035152;28;20184;-41
2022/05/06 01:24:45;;;;;;;32.43;24.27;;;8.60;99.90;;;;;;5035175;28;20204;-41
2022/05/06 01:27:26;;;;;;;31.60;22.57;;;8.50;99.90;;;;;;5034904;28;20610;-39
2022/05/06 01:29:53;;;;;;;31.03;21.53;;;8.50;99.90;;;;;;5033881;28;20277;-41
2022/05/06 01:32:22;;;;;;;31.03;22.87;;;8.50;99.90;;;;;;5034785;28;20251;-41
2022/05/06 01:34:48;;;;;;;31.83;22.47;;;8.50;99.90;;;;;;5035136;28;20177;-39
2022/05/06 01:37:17;;;;;;;30.63;22.20;;;8.50;99.90;;;;;;5035060;28;20200;-41
2022/05/06 01:39:44;;;;;;;32.03;21.60;;;8.50;99.90;;;;;;5034809;28;20173;-43
2022/05/06 01:42:13;;;;;;;27.80;21.10;;;8.40;99.90;;;;;;5035153;28;20174;-40
2022/05/06 01:44:43;;;;;;;28.50;20.90;;;8.30;99.90;;;;;;5034710;28;20189;-40
2022/05/06 01:47:16;;;;;;;29.30;21.47;;;8.30;99.90;;;;;;5034904;28;20204;-39
2022/05/06 01:49:43;;;;;;;29.23;21.77;;;8.30;99.90;;;;;;5034742;28;20245;-41
2022/05/06 01:52:14;;;;;;;28.37;21.33;;;8.20;99.90;;;;;;5034761;28;20192;-40
2022/05/06 01:54:40;;;;;;;33.57;21.57;;;8.50;99.90;;;;;;5034865;28;20253;-42
2022/05/06 01:57:06;;;;;;;30.90;21.10;;;8.10;99.90;;;;;;5034528;28;20624;-41
2022/05/06 01:59:31;;;;;;;31.13;20.67;;;8.10;99.90;;;;;;5033763;28;20196;-42
2022/05/06 02:01:57;;;;;;;32.17;20.97;;;8.10;99.90;;;;;;5035011;28;20184;-39
2022/05/06 02:07:07;;;;;;;30.30;21.53;;;8.10;99.90;;;;;;5035061;28;20247;-40
2022/05/06 02:09:32;;;;;;;30.03;21.90;;;8.00;99.90;;;;;;5035421;28;20181;-39
2022/05/06 02:11:58;;;;;;;30.37;20.67;;;8.00;99.90;;;;;;5036109;28;20208;-41
2022/05/06 02:14:23;;;;;;;29.10;19.87;;;7.90;99.90;;;;;;5044387;28;20173;-40
2022/05/06 02:16:49;;;;;;;28.23;20.77;;;7.90;99.90;;;;;;5043532;28;20193;-40
2022/05/06 02:19:15;;;;;;;30.13;20.93;;;7.80;99.90;;;;;;5042648;28;20267;-41
2022/05/06 02:21:40;;;;;;;28.63;19.10;;;7.80;99.90;;;;;;5034603;28;20252;-40
2022/05/06 02:24:06;;;;;;;28.93;20.73;;;7.80;99.90;;;;;;5034149;28;20185;-41
2022/05/06 02:26:31;;;;;;;30.27;20.40;;;7.70;99.90;;;;;;5033901;28;20203;-40
2022/05/06 02:28:58;;;;;;;32.57;21.17;;;7.70;99.90;;;;;;5034261;28;20232;-38
2022/05/06 02:34:15;;;;;;;27.20;20.03;;;7.60;99.90;;;;;;5034256;28;20199;-41
2022/05/06 02:36:41;;;;;;;27.43;19.70;;;7.60;99.90;;;;;;5033684;28;20205;-41
2022/05/06 02:39:06;;;;;;;28.63;19.87;;;7.50;99.90;;;;;;5033906;28;20177;-41
2022/05/06 02:41:32;;;;;;;25.83;19.90;;;7.50;99.90;;;;;;5033853;28;20653;-39
2022/05/06 02:43:58;;;;;;;28.67;19.77;;;7.50;99.90;;;;;;5033558;28;20181;-40
2022/05/06 02:46:24;;;;;;;28.63;20.30;;;7.50;99.90;;;;;;5033551;28;20180;-42
2022/05/06 02:48:50;;;;;;;28.97;20.20;;;7.40;99.90;;;;;;5033555;28;20181;-40
2022/05/06 02:51:16;;;;;;;26.07;19.57;;;7.40;99.90;;;;;;5032247;28;20274;-46
2022/05/06 02:53:41;;;;;;;29.53;20.60;;;7.40;99.90;;;;;;5034033;28;20180;-46
2022/05/06 02:56:07;;;;;;;28.67;20.33;;;7.30;99.90;;;;;;5033586;28;20169;-46
2022/05/06 02:58:33;;;;;;;27.40;18.80;;;7.30;99.90;;;;;;5033649;28;20205;-44
2022/05/06 03:00:59;;;;;;;28.53;19.80;;;7.30;99.90;;;;;;5033995;28;20180;-45
2022/05/06 03:03:25;;;;;;;30.60;19.00;;;7.20;99.90;;;;;;5035437;28;20191;-46
2022/05/06 03:05:51;;;;;;;28.53;19.60;;;7.20;99.90;;;;;;5041497;28;20184;-47
2022/05/06 03:08:16;;;;;;;27.60;19.10;;;7.20;99.90;;;;;;5040347;28;20211;-45
2022/05/06 03:10:42;;;;;;;34.03;20.63;;;7.10;99.90;;;;;;5037533;28;20203;-46
2022/05/06 03:13:07;;;;;;;30.57;20.37;;;7.10;99.90;;;;;;5033737;28;20527;-45
2022/05/06 03:15:34;;;;;;;30.87;20.97;;;7.10;99.90;;;;;;5033678;28;20188;-45
2022/05/06 03:18:00;;;;;;;31.33;20.77;;;7.00;99.90;;;;;;5033567;28;20566;-47
2022/05/06 03:20:26;;;;;;;33.33;22.07;;;7.10;99.90;;;;;;5033171;28;20177;-44
2022/05/06 03:22:53;;;;;;;33.23;22.27;;;7.10;99.90;;;;;;5033434;28;20180;-45
2022/05/06 03:25:20;;;;;;;27.90;19.67;;;7.00;99.90;;;;;;5033241;28;20177;-43
2022/05/06 03:28:07;;;;;;;30.70;21.03;;;7.00;99.90;;;;;;5033328;28;20204;-45
2022/05/06 03:30:39;;;;;;;29.83;20.37;;;7.00;99.90;;;;;;5033076;28;20169;-46
2022/05/06 03:33:09;;;;;;;33.00;20.20;;;7.00;99.90;;;;;;5033092;28;20652;-45
2022/05/06 03:35:37;;;;;;;31.43;20.33;;;7.00;99.90;;;;;;5033256;28;20599;-44
2022/05/06 03:38:03;;;;;;;30.43;20.93;;;7.00;99.90;;;;;;5033054;28;20193;-46
2022/05/06 03:40:29;;;;;;;30.13;19.73;;;7.00;99.90;;;;;;5033047;28;20541;-45
2022/05/06 03:42:54;;;;;;;31.27;20.00;;;6.90;99.90;;;;;;5032945;28;20287;-44
2022/05/06 03:45:20;;;;;;;32.83;21.33;;;6.90;99.90;;;;;;5033214;28;20210;-46
2022/05/06 03:47:45;;;;;;;28.33;20.67;;;6.90;99.90;;;;;;5032949;28;20201;-45
2022/05/06 03:52:55;;;;;;;27.93;19.87;;;6.90;99.90;;;;;;5033522;28;20532;-46
2022/05/06 03:55:22;;;;;;;30.03;20.93;;;6.80;99.90;;;;;;5033139;28;20169;-46
2022/05/06 03:57:47;;;;;;;35.23;22.47;;;6.80;99.90;;;;;;5032770;28;20560;-45
2022/05/06 04:00:14;;;;;;;28.07;19.37;;;6.80;99.90;;;;;;5033077;28;20205;-46
2022/05/06 04:02:40;;;;;;;27.77;19.03;;;6.80;99.90;;;;;;5033090;28;20276;-45
2022/05/06 04:05:06;;;;;;;31.97;20.83;;;6.80;99.90;;;;;;5033116;28;20587;-45
2022/05/06 04:07:32;;;;;;;32.27;21.27;;;6.80;99.90;;;;;;5032583;28;20236;-45
2022/05/06 04:09:58;;;;;;;31.50;20.33;;;6.70;99.90;;;;;;5032850;28;20274;-46
2022/05/06 04:12:23;;;;;;;31.50;20.77;;;6.70;99.90;;;;;;5033288;28;20196;-45
2022/05/06 04:14:52;;;;;;;30.83;21.67;;;6.70;99.90;;;;;;5032672;28;20181;-45
2022/05/06 04:17:20;;;;;;;32.47;21.00;;;6.70;99.90;;;;;;5032889;28;20193;-46
2022/05/06 04:25:15;;;;;;;37.77;23.50;;;6.70;99.90;;;;;;5036384;28;20251;-45
2022/05/06 04:27:42;;;;;;;35.37;24.13;;;6.70;99.90;;;;;;5036354;28;20252;-44
2022/05/06 04:30:08;;;;;;;39.17;23.70;;;6.80;99.90;;;;;;5036287;28;20256;-45
2022/05/06 04:32:34;;;;;;;36.07;23.20;;;6.90;99.90;;;;;;5035878;28;20205;-45
2022/05/06 04:35:00;;;;;;;34.90;23.50;;;6.90;99.90;;;;;;5036013;28;20180;-46
2022/05/06 04:37:26;;;;;;;37.47;24.20;;;6.90;99.90;;;;;;5036212;28;20210;-45
2022/05/06 04:39:52;;;;;;;38.70;23.20;;;6.90;99.90;;;;;;5036048;28;20181;-46
2022/05/06 04:42:18;;;;;;;38.93;24.40;;;7.00;99.90;;;;;;5034757;28;20191;-45
2022/05/06 04:44:43;;;;;;;37.73;24.50;;;7.00;99.90;;;;;;5035793;28;20184;-44
2022/05/06 04:47:09;;;;;;;45.90;24.43;;;7.00;99.90;;;;;;5035742;28;20200;-46
2022/05/06 04:49:35;;;;;;;38.90;24.87;;;7.10;99.90;;;;;;5035618;28;20187;-44
2022/05/06 04:52:00;;;;;;;39.67;24.60;;;7.20;99.90;;;;;;5035571;28;20227;-46
2022/05/06 04:54:26;;;;;;;38.57;25.13;;;7.20;99.90;;;;;;5035804;28;20591;-45
2022/05/06 04:56:53;;;;;;;45.70;25.83;;;7.30;99.90;;;;;;5035875;28;20565;-45
2022/05/06 04:59:22;;;;;;;39.93;26.33;;;7.30;99.90;;;;;;5035476;28;20278;-44
2022/05/06 05:01:47;;;;;;;41.33;26.97;;;7.40;99.90;;;;;;5035789;28;20581;-44
2022/05/06 05:04:13;;;;;;;41.93;25.93;;;7.50;99.90;;;;;;5035362;28;20184;-45
2022/05/06 05:06:39;;;;;;;43.53;27.33;;;7.60;99.90;;;;;;5035705;28;20197;-46
2022/05/06 05:09:04;;;;;;;43.77;26.97;;;7.70;99.90;;;;;;5035365;28;20275;-45
2022/05/06 05:11:30;;;;;;;45.37;27.63;;;7.80;99.90;;;;;;5035842;28;20203;-45
2022/05/06 05:13:55;;;;;;;44.87;28.20;;;7.90;99.90;;;;;;5035974;28;20180;-46
2022/05/06 05:16:21;;;;;;;46.33;28.53;;;8.00;99.90;;;;;;5035601;28;20208;-45
2022/05/06 05:18:47;;;;;;;49.17;27.77;;;8.10;99.90;;;;;;5035329;28;20267;-44
2022/05/06 05:21:12;;;;;;;48.43;28.03;;;8.10;99.90;;;;;;5035740;28;20183;-45
2022/05/06 05:23:38;;;;;;;53.23;29.67;;;8.30;99.90;;;;;;5035188;28;20203;-45
2022/05/06 05:26:03;;;;;;;57.60;31.17;;;8.30;99.90;;;;;;5036331;28;20219;-45
2022/05/06 05:28:29;;;;;;;57.63;30.50;;;8.50;99.90;;;;;;5035856;28;20616;-46
2022/05/06 05:30:54;;;;;;;59.00;31.73;;;8.60;99.90;;;;;;5035003;28;20199;-45
2022/05/06 05:33:20;;;;;;;56.90;28.87;;;8.70;99.90;;;;;;5034202;28;20270;-44
2022/05/06 05:35:46;;;;;;;61.87;33.00;;;8.70;99.90;;;;;;5035349;28;20177;-45
2022/05/06 05:38:11;;;;;;;56.50;31.33;;;8.80;99.90;;;;;;5034883;28;20585;-45
2022/05/06 05:40:37;;;;;;;55.97;32.03;;;8.90;99.90;;;;;;5034967;28;20174;-46
2022/05/06 05:43:03;;;;;;;55.67;30.03;;;9.10;99.90;;;;;;5034918;28;20172;-45
2022/05/06 05:48:22;;;;;;;51.07;28.67;;;9.20;99.90;;;;;;5034908;28;20621;-45
2022/05/06 05:50:49;;;;;;;45.93;26.83;;;9.30;99.90;;;;;;5034999;28;20193;-45
2022/05/06 05:53:15;;;;;;;50.43;27.73;;;9.30;99.90;;;;;;5034883;28;20210;-46
2022/05/06 05:55:40;;;;;;;50.23;26.83;;;9.40;99.90;;;;;;5034807;28;20173;-44
2022/05/06 05:58:06;;;;;;;41.13;26.17;;;9.40;99.90;;;;;;5034926;28;20213;-44
2022/05/06 06:00:31;;;;;;;45.43;27.07;;;9.50;99.90;;;;;;5034891;28;20180;-45
2022/05/06 06:02:57;;;;;;;47.50;27.50;;;9.50;99.90;;;;;;5034642;28;20185;-47
2022/05/06 06:05:23;;;;;;;45.50;28.53;;;9.60;99.90;;;;;;5032973;28;20188;-40
2022/05/06 06:07:49;;;;;;;42.43;25.93;;;9.70;99.90;;;;;;5034218;28;20189;-41
2022/05/06 06:10:14;;;;;;;54.83;29.93;;;9.80;99.90;;;;;;5034211;28;20204;-41
2022/05/06 06:12:40;;;;;;;44.27;27.87;;;9.80;99.90;;;;;;5032895;28;20200;-39
2022/05/06 06:15:07;;;;;;;50.47;28.70;;;9.80;99.90;;;;;;5034373;28;20264;-40
2022/05/06 06:17:33;;;;;;;45.77;29.27;;;9.80;99.90;;;;;;5034218;28;20201;-39
2022/05/06 06:19:59;;;;;;;47.00;27.20;;;9.90;99.90;;;;;;5034288;28;20173;-40
2022/05/06 06:22:24;;;;;;;53.20;26.93;;;10.00;99.90;;;;;;5034283;28;20181;-41
2022/05/06 06:24:50;;;;;;;44.53;28.10;;;9.90;99.90;;;;;;5033918;28;20169;-40
2022/05/06 06:27:15;;;;;;;41.60;27.67;;;10.00;99.90;;;;;;5033940;28;20605;-40
2022/05/06 06:29:45;;;;;;;44.33;28.07;;;10.00;99.90;;;;;;5034383;28;20181;-40
2022/05/06 06:32:10;;;;;;;45.90;27.40;;;10.00;99.90;;;;;;5033947;28;20299;-40
2022/05/06 06:34:36;;;;;;;42.70;26.10;;;10.10;99.90;;;;;;5034048;28;20207;-40
2022/05/06 06:37:02;;;;;;;43.97;27.30;;;10.10;99.90;;;;;;5034053;28;20200;-41
2022/05/06 06:39:27;;;;;;;51.47;28.83;;;10.10;99.90;;;;;;5033625;28;20173;-40
2022/05/06 06:41:53;;;;;;;42.47;27.27;;;10.20;99.90;;;;;;5033919;28;20181;-41
2022/05/06 06:44:18;;;;;;;48.77;29.83;;;10.40;99.90;;;;;;5033318;28;20597;-42
2022/05/06 06:46:44;;;;;;;47.80;29.37;;;10.40;99.90;;;;;;5033419;28;20206;-42
2022/05/06 06:49:11;;;;;;;44.00;26.50;;;10.50;99.90;;;;;;5033565;28;20205;-42
2022/05/06 06:51:37;;;;;;;44.40;28.37;;;10.60;99.90;;;;;;5033571;28;20196;-42
2022/05/06 06:54:02;;;;;;;47.33;29.27;;;10.60;99.90;;;;;;5034015;28;20185;-40
2022/05/06 06:56:28;;;;;;;47.77;28.40;;;10.70;99.90;;;;;;5033548;28;20173;-39
2022/05/06 06:58:54;;;;;;;46.10;27.90;;;10.80;99.90;;;;;;5033607;28;20189;-42
2022/05/06 07:01:21;;;;;;;44.23;27.90;;;10.80;99.90;;;;;;5033496;28;20180;-43
2022/05/06 07:03:46;;;;;;;44.03;27.37;;;10.90;99.90;;;;;;5033846;28;20177;-40
2022/05/06 07:11:55;;;;;;;50.30;28.73;;;11.20;99.90;;;;;;5033421;28;20698;-43
2022/05/06 07:14:21;;;;;;;44.83;27.40;;;11.40;99.90;;;;;;5033621;28;20211;-40
2022/05/06 07:16:48;;;;;;;45.60;28.83;;;11.50;99.90;;;;;;5031936;28;20198;-42
2022/05/06 07:19:14;;;;;;;48.00;27.73;;;11.60;99.90;;;;;;5033447;28;20179;-40
2022/05/06 07:21:40;;;;;;;48.37;29.00;;;11.80;99.90;;;;;;5033500;28;20181;-40
2022/05/06 07:24:06;;;;;;;49.80;29.93;;;11.90;99.90;;;;;;5033863;28;20285;-40
2022/05/06 07:26:32;;;;;;;43.57;28.50;;;12.00;99.90;;;;;;5033678;28;20176;-40
2022/05/06 07:28:58;;;;;;;42.77;27.73;;;12.10;99.90;;;;;;5035104;28;20190;-40
2022/05/06 07:31:24;;;;;;;45.00;28.10;;;12.10;99.90;;;;;;5034996;28;20231;-40
2022/05/06 07:33:50;;;;;;;42.57;27.93;;;12.20;99.90;;;;;;5035296;28;20264;-41
2022/05/06 07:36:15;;;;;;;40.60;26.50;;;12.30;99.90;;;;;;5035694;28;20186;-42
2022/05/06 07:38:41;;;;;;;44.27;28.50;;;12.30;99.90;;;;;;5033063;28;20813;-40
2022/05/06 07:41:07;;;;;;;45.20;29.33;;;12.40;99.90;;;;;;5033082;28;20204;-41
2022/05/06 07:43:34;;;;;;;41.90;27.90;;;12.50;99.90;;;;;;5033263;28;20258;-41
2022/05/06 07:46:00;;;;;;;44.60;28.60;;;12.60;99.90;;;;;;5033236;28;20223;-41
2022/05/06 07:48:25;;;;;;;43.43;27.80;;;12.60;99.90;;;;;;5032919;28;20208;-43
2022/05/06 07:50:51;;;;;;;46.70;29.00;;;12.70;99.90;;;;;;5033865;28;20326;-40
2022/05/06 07:53:17;;;;;;;44.10;29.20;;;12.70;99.90;;;;;;5033812;28;20681;-42
2022/05/06 07:55:43;;;;;;;44.43;28.10;;;12.80;99.90;;;;;;5033195;28;20184;-41
2022/05/06 07:58:10;;;;;;;49.00;29.90;;;12.90;99.90;;;;;;5036181;28;20685;-41
2022/05/06 08:00:36;;;;;;;52.63;31.27;;;12.90;99.90;;;;;;5036942;28;20165;-43
2022/05/06 08:05:47;;;;;;;48.00;27.90;;;13.20;99.90;;;;;;5037122;28;20299;-39
2022/05/06 08:08:13;;;;;;;46.37;28.63;;;13.40;99.90;;;;;;5036730;28;20205;-42
2022/05/06 08:10:39;;;;;;;42.60;27.37;;;13.50;99.90;;;;;;5036628;28;20188;-41
2022/05/06 08:13:06;;;;;;;44.20;27.73;;;13.60;99.90;;;;;;5036606;28;20654;-41
2022/05/06 08:15:31;;;;;;;46.27;28.90;;;13.80;99.90;;;;;;5036419;28;20648;-41
2022/05/06 08:17:57;;;;;;;45.87;27.53;;;13.90;99.90;;;;;;5036510;28;20259;-42
2022/05/06 08:20:22;;;;;;;43.63;27.80;;;13.90;99.90;;;;;;5036308;28;20181;-40
2022/05/06 08:22:48;;;;;;;46.00;29.20;;;14.10;99.90;;;;;;5036584;28;20699;-42
2022/05/06 08:25:14;;;;;;;46.40;28.47;;;14.20;99.90;;;;;;5046311;22;20244;-43
2022/05/06 08:27:42;;;;;;;46.00;28.23;;;14.30;99.90;;;;;;5016624;28;20198;-43
2022/05/06 08:30:12;;;;;;;44.47;28.40;;;14.30;99.90;;;;;;5016581;28;20192;-45
2022/05/06 08:32:38;;;;;;;45.13;29.30;;;14.40;99.90;;;;;;5016206;28;20198;-45
2022/05/06 08:35:05;;;;;;;46.77;29.50;;;14.60;99.90;;;;;;5016165;28;20196;-44
2022/05/06 08:37:40;;;;;;;46.17;28.73;;;14.60;99.90;;;;;;5016313;28;20197;-44
2022/05/06 08:40:07;;;;;;;47.43;29.07;;;14.70;99.90;;;;;;5016415;28;20510;-46
2022/05/06 08:42:32;;;;;;;43.20;29.43;;;14.70;99.90;;;;;;5016515;28;20177;-46
2022/05/06 08:53:12;;;;;;;41.80;27.27;;;15.30;99.90;;;;;;5016222;28;20193;-43
2022/05/06 08:55:37;;;;;;;44.73;28.17;;;15.40;99.90;;;;;;5015882;28;20625;-43
2022/05/06 08:58:05;;;;;;;44.93;28.90;;;15.50;99.90;;;;;;5015732;28;20198;-43
2022/05/06 09:00:31;;;;;;;42.10;28.67;;;15.60;99.90;;;;;;5015736;28;20181;-44
2022/05/06 09:02:57;;;;;;;40.77;27.83;;;15.80;99.90;;;;;;5016107;28;20189;-45
2022/05/06 09:05:22;;;;;;;42.63;26.20;;;16.10;99.90;;;;;;5015684;28;20188;-46
2022/05/06 09:07:59;;;;;;;38.87;26.07;;;16.10;99.90;;;;;;5015346;28;20256;-47
2022/05/06 09:10:26;;;;;;;41.17;27.03;;;16.10;99.90;;;;;;5015758;28;20172;-45
2022/05/06 09:12:55;;;;;;;42.37;28.87;;;16.20;99.90;;;;;;5016084;28;20209;-45
2022/05/06 09:18:07;;;;;;;36.63;25.57;;;16.60;99.90;;;;;;5015702;28;20680;-46
2022/05/06 09:20:33;;;;;;;39.13;26.70;;;16.80;99.90;;;;;;5015735;28;20231;-46
2022/05/06 09:23:00;;;;;;;37.60;26.00;;;17.00;99.90;;;;;;5015477;28;20185;-44
2022/05/06 09:25:45;;;;;;;36.20;25.73;;;17.10;99.90;;;;;;5015348;28;20205;-46
2022/05/06 09:28:20;;;;;;;39.53;25.33;;;17.10;99.90;;;;;;5015219;28;20673;-48
2022/05/06 09:31:01;;;;;;;39.53;27.50;;;17.20;99.90;;;;;;5015136;28;20207;-44
2022/05/06 09:33:28;;;;;;;42.07;26.77;;;17.30;99.90;;;;;;5015491;28;20181;-45
2022/05/06 09:35:56;;;;;;;38.17;25.30;;;17.60;99.90;;;;;;5015374;28;20240;-46
2022/05/06 09:38:24;;;;;;;37.97;25.97;;;17.70;99.90;;;;;;5014979;28;20198;-46
2022/05/06 09:40:49;;;;;;;36.10;25.37;;;17.80;99.90;;;;;;5015053;28;20261;-45
2022/05/06 09:43:17;;;;;;;36.97;25.37;;;17.90;99.90;;;;;;5014971;28;20268;-45
2022/05/06 09:45:44;;;;;;;36.30;24.13;;;18.10;99.90;;;;;;5014893;28;20236;-45
2022/05/06 09:48:12;;;;;;;33.57;22.23;;;18.20;99.90;;;;;;5014810;28;20206;-46
2022/05/06 09:50:42;;;;;;;30.80;21.53;;;18.40;99.90;;;;;;5015314;28;20201;-45
2022/05/06 09:53:11;;;;;;;35.53;24.37;;;18.70;99.90;;;;;;5015124;28;20177;-44
2022/05/06 09:55:38;;;;;;;33.17;23.03;;;18.80;99.90;;;;;;5014722;28;20180;-44
2022/05/06 09:58:04;;;;;;;35.67;23.77;;;19.00;99.90;;;;;;5015170;28;20677;-46
2022/05/06 10:00:32;;;;;;;36.37;23.57;;;19.10;99.90;;;;;;5015917;28;20173;-38
2022/05/06 10:02:58;;;;;;;36.23;22.50;;;19.30;99.90;;;;;;5014526;28;20193;-40
2022/05/06 10:05:25;;;;;;;34.90;23.77;;;19.30;99.90;;;;;;5014273;28;20260;-40
2022/05/06 10:07:58;;;;;;;31.07;22.17;;;19.20;99.90;;;;;;5014055;28;20664;-39
2022/05/06 10:10:29;;;;;;;30.97;21.40;;;19.00;99.90;;;;;;5014183;28;20174;-42
2022/05/06 10:13:01;;;;;;;32.80;22.40;;;19.10;99.90;;;;;;5014352;28;20189;-38
2022/05/06 10:15:29;;;;;;;26.27;18.93;;;19.20;99.90;;;;;;5013965;28;20182;-43
2022/05/06 10:17:59;;;;;;;30.57;19.63;;;19.20;99.90;;;;;;5013977;28;20731;-42
2022/05/06 10:20:36;;;;;;;25.07;17.50;;;19.20;99.90;;;;;;5013442;28;20253;-41
2022/05/06 10:23:03;;;;;;;27.57;17.70;;;19.10;99.90;;;;;;5014209;28;20220;-38
2022/05/06 10:25:41;;;;;;;26.00;18.97;;;19.10;99.90;;;;;;5013773;28;20265;-41
2022/05/06 10:34:12;;;;;;;30.47;21.70;;;19.30;99.90;;;;;;5013813;28;20208;-39
2022/05/06 10:36:41;;;;;;;34.87;21.80;;;19.50;99.90;;;;;;5014191;28;20229;-39
2022/05/06 10:39:33;;;;;;;30.90;20.93;;;19.70;99.90;;;;;;5013954;28;20545;-41
2022/05/06 10:42:03;;;;;;;26.67;19.37;;;20.00;99.90;;;;;;5014450;28;20249;-41
2022/05/06 10:44:48;;;;;;;28.07;17.03;;;20.10;99.90;;;;;;5014131;28;20181;-40
2022/05/06 10:47:16;;;;;;;28.07;17.77;;;20.30;99.90;;;;;;5013921;28;20229;-41
2022/05/06 10:49:43;;;;;;;20.73;15.67;;;20.20;99.90;;;;;;5013958;28;20177;-41
2022/05/06 10:52:24;;;;;;;24.23;17.00;;;20.20;99.90;;;;;;5013903;28;20238;-39
2022/05/06 10:55:00;;;;;;;25.47;18.00;;;20.30;99.90;;;;;;5014034;28;20531;-41
2022/05/06 10:57:44;;;;;;;26.97;18.13;;;20.40;99.90;;;;;;5014059;28;20193;-42
2022/05/06 11:00:10;;;;;;;24.53;17.93;;;20.50;99.90;;;;;;5013667;28;20185;-37
2022/05/06 11:02:38;;;;;;;19.83;15.10;;;20.60;99.90;;;;;;5013486;28;20220;-39
2022/05/06 11:05:11;;;;;;;21.37;14.97;;;20.70;99.90;;;;;;5013798;28;20575;-40
2022/05/06 11:07:38;;;;;;;24.90;15.70;;;20.60;99.90;;;;;;5013640;28;20205;-40
2022/05/06 11:10:30;;;;;;;21.20;15.53;;;20.80;99.90;;;;;;5013635;28;20177;-41
2022/05/06 11:12:57;;;;;;;22.27;14.77;;;20.90;99.90;;;;;;5013143;28;20303;-43
2022/05/06 11:15:31;;;;;;;21.93;14.90;;;20.80;99.90;;;;;;5013750;28;20184;-42
2022/05/06 11:18:04;;;;;;;17.23;12.50;;;20.60;99.90;;;;;;5013436;28;20233;-41
2022/05/06 11:20:32;;;;;;;17.90;12.83;;;20.60;99.90;;;;;;5013350;28;20656;-41
2022/05/06 11:23:00;;;;;;;17.93;13.63;;;20.60;99.90;;;;;;5013380;28;20200;-41
2022/05/06 11:25:31;;;;;;;16.87;13.00;;;20.80;99.90;;;;;;5013253;28;20255;-42
2022/05/06 11:27:59;;;;;;;22.13;14.30;;;20.90;99.90;;;;;;5013613;28;20232;-41
2022/05/06 11:30:27;;;;;;;18.37;13.50;;;21.20;99.90;;;;;;5014426;28;20181;-40
2022/05/06 11:33:00;;;;;;;21.50;15.90;;;21.50;99.90;;;;;;5016609;28;20216;-42
2022/05/06 11:35:35;;;;;;;20.10;15.73;;;21.60;99.90;;;;;;5016867;28;20263;-42
2022/05/06 11:38:02;;;;;;;23.00;15.97;;;21.60;99.90;;;;;;5017470;28;20295;-41
2022/05/06 11:42:55;;;;;;;19.07;13.93;;;21.40;99.90;;;;;;5016970;28;20177;-42
2022/05/06 11:48:06;;;;;;;19.23;14.47;;;21.60;99.90;;;;;;4997447;28;20216;-39
2022/05/06 11:50:34;;;;;;;20.17;14.23;;;21.50;99.90;;;;;;5004566;28;20177;-39
2022/05/06 11:53:05;;;;;;;19.47;14.10;;;21.50;99.90;;;;;;5017119;28;20205;-43
2022/05/06 11:55:31;;;;;;;16.33;13.13;;;21.50;99.90;;;;;;4997580;28;20197;-39
2022/05/06 11:57:57;;;;;;;14.30;11.83;;;21.70;99.90;;;;;;4997196;28;20202;-41
2022/05/06 12:00:25;;;;;;;11.63;9.37;;;22.00;99.90;;;;;;4997451;28;20193;-43
2022/05/06 12:02:51;;;;;;;16.17;12.40;;;22.10;99.90;;;;;;4997462;28;20264;-41
2022/05/06 12:05:17;;;;;;;12.97;11.27;;;22.30;99.90;;;;;;4997179;28;20183;-40
2022/05/06 12:07:45;;;;;;;15.43;11.87;;;22.30;99.90;;;;;;5014511;28;20255;-42
2022/05/06 12:10:34;;;;;;;13.87;11.07;;;22.50;99.90;;;;;;5016396;28;20185;-43
2022/05/06 12:13:07;;;;;;;13.20;10.27;;;22.40;99.90;;;;;;5015450;28;20197;-42
2022/05/06 12:15:38;;;;;;;13.03;9.37;;;22.50;99.90;;;;;;5016876;28;20166;-42
2022/05/06 12:18:22;;;;;;;14.37;9.90;;;22.60;99.90;;;;;;5016387;28;20206;-40
2022/05/06 12:20:47;;;;;;;15.17;10.53;;;22.70;99.90;;;;;;5017404;28;20170;-38
2022/05/06 12:23:14;;;;;;;11.73;8.70;;;22.80;99.90;;;;;;5016504;28;20196;-47
2022/05/06 12:25:41;;;;;;;11.03;7.53;;;22.80;99.90;;;;;;5016378;28;20649;-46
2022/05/06 12:28:17;;;;;;;8.43;7.20;;;22.80;99.90;;;;;;5016283;28;20624;-46
2022/05/06 12:30:46;;;;;;;9.53;7.47;;;22.90;99.90;;;;;;5016523;28;20161;-46
2022/05/06 12:33:13;;;;;;;7.73;5.93;;;23.10;99.90;;;;;;5016515;28;20188;-46
2022/05/06 12:35:59;;;;;;;7.27;6.37;;;23.20;99.90;;;;;;5016511;28;20228;-47
2022/05/06 12:38:29;;;;;;;8.27;5.33;;;23.30;99.90;;;;;;5015660;28;20209;-47
2022/05/06 12:40:54;;;;;;;9.60;5.80;;;23.30;99.90;;;;;;5016338;28;20178;-46
2022/05/06 12:43:27;;;;;;;11.83;6.23;;;23.30;99.90;;;;;;5015699;28;20186;-46
2022/05/06 12:46:01;;;;;;;7.40;5.97;;;23.40;99.90;;;;;;5015695;28;20192;-45
2022/05/06 12:51:11;;;;;;;8.50;6.47;;;23.80;99.90;;;;;;5015888;28;20289;-46
2022/05/06 12:53:37;;;;;;;14.68;9.00;;;24.10;99.90;;;;;;5015934;28;20260;-47
2022/05/06 12:56:04;;;;;;;11.88;9.77;;;24.30;99.90;;;;;;5015886;28;20177;-46
2022/05/06 12:58:30;;;;;;;11.80;8.00;;;24.60;99.90;;;;;;5015747;28;20640;-48
2022/05/06 13:00:59;;;;;;;8.35;6.38;;;24.60;99.90;;;;;;5015819;28;20227;-46
2022/05/06 13:03:25;;;;;;;11.85;7.85;;;24.60;99.90;;;;;;5016001;28;20186;-47
2022/05/06 13:05:53;;;;;;;10.15;6.72;;;24.60;99.90;;;;;;5015643;28;20184;-45
2022/05/06 13:08:20;;;;;;;10.93;8.20;;;24.60;99.90;;;;;;5015772;28;20227;-49
2022/05/06 13:10:45;;;;;;;9.95;7.93;;;24.60;99.90;;;;;;5015746;28;20264;-47
2022/05/06 13:13:11;;;;;;;9.95;7.65;;;24.60;99.90;;;;;;5015811;28;20262;-46
2022/05/06 13:15:37;;;;;;;9.50;7.35;;;24.70;99.90;;;;;;5015395;28;20260;-45
2022/05/06 13:18:03;;;;;;;11.52;7.53;;;24.70;99.90;;;;;;5015583;28;20205;-47
2022/05/06 13:20:28;;;;;;;9.00;6.93;;;24.70;99.90;;;;;;5015588;28;20664;-46
2022/05/06 13:22:54;;;;;;;7.65;6.85;;;24.80;99.90;;;;;;5015884;28;20181;-47
2022/05/06 13:25:20;;;;;;;8.30;7.05;;;24.90;99.90;;;;;;5015298;28;20241;-46